Sapelo Island, GA (31327)

9:13 PM EDT on September 17, 2014 (GMT -0400)
Country Walk | Change Station
CLOSE
Current Station
Personal Weather Station
Location: Brunswick, GA
Elevation: 30 ft
Nearby Weather Stations

Elev 30 ft 31.27 °N, 81.48 °W | Updated 8 seconds ago

Mostly Cloudy
Mostly Cloudy
75.4 °F
Feels Like 74 °F
N
0.0
Wind Variable Wind from North
Gusts 0.0 mph

Today
High -- | Low -- °F
--% Chance of Precip.
Yesterday
High -- | Low -- °F
Precip. -- in
7:10 AM 7:28 PM
Waning Crescent, 31% visible
Pressure 29.88 in
Visibility 10.0 miles
Clouds Clear
Heat Index 74 °F
Dew Point 74 °F
Humidity 94%
Rainfall 0.13 in
Snow Depth Not available.
UV 0.0 out of 12
Pollen 7.80 out of 12
Air Quality Not available.
Flu Activity Not available.
METAR KSSI 180053Z AUTO 15003KT 10SM CLR 26/22 A2988 RMK AO2 SLP119 T02610222

More Conditions Fewer Conditions

Pressure 29.88 in
Visibility 10.0 miles
Clouds Clear
Heat Index 74 °F
Dew Point 74 °F
Humidity 94%
Rainfall 0.13 in
Snow Depth Not available.
UV 0.0 out of 12
Pollen 7.80 out of 12
Air Quality Not available.
Flu Activity Not available.
METAR KSSI 180053Z AUTO 15003KT 10SM CLR 26/22 A2988 RMK AO2 SLP119 T02610222

More Conditions Fewer Conditions

10-Day Weather Forecast

Almanac

Astronomy

Sep. 17, 2014 Rise Set
Actual Time 7:10 AM EDT 7:28 PM EDT
Civil Twilight 6:46 AM EDT 7:52 PM EDT
Nautical Twilight 6:17 AM EDT 8:20 PM EDT
Astronomical Twilight 5:48 AM EDT 8:49 PM EDT
Moon 1:24 AM EDT (9/17) 3:21 PM EDT (9/17)
Length of Visible Light 13h 06m
Length of Day
12h 17m
Tomorrow will be 1m 55s shorter.
Waning Crescent, 31% of the Moon is Illuminated
Today
Waning Crescent
Sep 24
New
Oct 1
First Quarter
Oct 8
Full
Oct 15
Last Quarter

Today's Extremes

State Highs State Lows

Community

WunderPhotos

Upload Photos

1,754,244 photos uploaded!

Nearby

Snow Depth

Station Depth Elevation
No new snow has been reported.

Earthquake Activity

City Distance Mag. Time & Date
No recent earthquake activity has been reported nearby.
Minimum magnitude displayed is 2.5.

Coastal Water Temperatures

Place Temperature
No Stations Reporting

Nearby Weather Stations